sensor_id;sensor_type;location;lat;lon;timestamp;pressure;altitude;pressure_sealevel;temperature;humidity
64687;BME280;51113;53.646;-113.674;2024-01-25T00:00:42;92622.22;;;-3.23;88.51
64687;BME280;51113;53.646;-113.674;2024-01-25T00:03:11;92618.75;;;-3.29;88.40
64687;BME280;51113;53.646;-113.674;2024-01-25T00:05:40;92620.91;;;-3.33;89.42
64687;BME280;51113;53.646;-113.674;2024-01-25T00:08:09;92619.50;;;-3.22;89.48
64687;BME280;51113;53.646;-113.674;2024-01-25T00:10:38;92623.84;;;-3.36;89.24
64687;BME280;51113;53.646;-113.674;2024-01-25T00:13:06;92621.09;;;-3.34;89.21
64687;BME280;51113;53.646;-113.674;2024-01-25T00:15:35;92626.22;;;-3.47;89.15
64687;BME280;51113;53.646;-113.674;2024-01-25T00:18:04;92624.81;;;-3.37;89.68
64687;BME280;51113;53.646;-113.674;2024-01-25T00:20:33;92627.00;;;-3.47;89.03
64687;BME280;51113;53.646;-113.674;2024-01-25T00:23:01;92618.88;;;-3.62;89.28
64687;BME280;51113;53.646;-113.674;2024-01-25T00:25:31;92631.38;;;-3.74;89.55
64687;BME280;51113;53.646;-113.674;2024-01-25T00:27:59;92628.03;;;-3.61;89.80
64687;BME280;51113;53.646;-113.674;2024-01-25T00:30:28;92635.09;;;-3.70;89.97
64687;BME280;51113;53.646;-113.674;2024-01-25T00:32:57;92633.09;;;-3.61;89.36
64687;BME280;51113;53.646;-113.674;2024-01-25T00:35:26;92638.81;;;-3.79;89.41
64687;BME280;51113;53.646;-113.674;2024-01-25T00:37:55;92650.53;;;-3.91;89.70
64687;BME280;51113;53.646;-113.674;2024-01-25T00:40:24;92642.72;;;-3.89;89.95
64687;BME280;51113;53.646;-113.674;2024-01-25T00:42:53;92643.50;;;-3.82;90.18
64687;BME280;51113;53.646;-113.674;2024-01-25T00:45:22;92626.56;;;-4.02;89.68
64687;BME280;51113;53.646;-113.674;2024-01-25T00:47:52;92637.25;;;-3.86;89.89
64687;BME280;51113;53.646;-113.674;2024-01-25T00:50:21;92630.66;;;-4.01;89.43
64687;BME280;51113;53.646;-113.674;2024-01-25T00:52:52;92636.91;;;-4.16;90.11
64687;BME280;51113;53.646;-113.674;2024-01-25T00:55:21;92632.06;;;-4.31;90.61
64687;BME280;51113;53.646;-113.674;2024-01-25T00:57:50;92631.09;;;-4.43;90.05
64687;BME280;51113;53.646;-113.674;2024-01-25T01:00:20;92634.19;;;-4.48;91.08
64687;BME280;51113;53.646;-113.674;2024-01-25T01:02:49;92626.41;;;-4.60;91.37
64687;BME280;51113;53.646;-113.674;2024-01-25T01:05:18;92631.47;;;-4.66;91.68
64687;BME280;51113;53.646;-113.674;2024-01-25T01:07:47;92637.69;;;-4.69;91.57
64687;BME280;51113;53.646;-113.674;2024-01-25T01:10:17;92635.53;;;-4.72;91.67
64687;BME280;51113;53.646;-113.674;2024-01-25T01:12:45;92637.28;;;-4.79;92.47
64687;BME280;51113;53.646;-113.674;2024-01-25T01:15:14;92633.19;;;-4.93;92.43
64687;BME280;51113;53.646;-113.674;2024-01-25T01:17:43;92631.41;;;-5.06;92.09
64687;BME280;51113;53.646;-113.674;2024-01-25T01:20:11;92627.47;;;-5.15;92.96
64687;BME280;51113;53.646;-113.674;2024-01-25T01:22:40;92624.72;;;-5.27;93.65
64687;BME280;51113;53.646;-113.674;2024-01-25T01:25:09;92633.84;;;-5.32;93.11
64687;BME280;51113;53.646;-113.674;2024-01-25T01:27:39;92630.13;;;-5.43;93.06
64687;BME280;51113;53.646;-113.674;2024-01-25T01:30:08;92630.47;;;-5.53;94.35
64687;BME280;51113;53.646;-113.674;2024-01-25T01:32:37;92628.53;;;-5.50;94.98
64687;BME280;51113;53.646;-113.674;2024-01-25T01:35:06;92633.19;;;-4.86;98.05
64687;BME280;51113;53.646;-113.674;2024-01-25T01:37:35;92631.22;;;-5.04;94.30
64687;BME280;51113;53.646;-113.674;2024-01-25T01:40:04;92622.38;;;-5.28;93.52
64687;BME280;51113;53.646;-113.674;2024-01-25T01:42:33;92626.56;;;-5.55;92.86
64687;BME280;51113;53.646;-113.674;2024-01-25T01:45:02;92619.59;;;-5.46;95.03
64687;BME280;51113;53.646;-113.674;2024-01-25T01:47:31;92624.66;;;-5.46;94.40
64687;BME280;51113;53.646;-113.674;2024-01-25T01:50:00;92613.13;;;-5.62;94.52
64687;BME280;51113;53.646;-113.674;2024-01-25T01:52:30;92614.94;;;-5.43;96.46
64687;BME280;51113;53.646;-113.674;2024-01-25T01:54:59;92606.25;;;-5.27;96.14
64687;BME280;51113;53.646;-113.674;2024-01-25T01:57:28;92604.97;;;-4.83;96.66
64687;BME280;51113;53.646;-113.674;2024-01-25T01:59:59;92602.81;;;-4.73;96.28
64687;BME280;51113;53.646;-113.674;2024-01-25T02:02:29;92606.34;;;-4.61;95.19
64687;BME280;51113;53.646;-113.674;2024-01-25T02:04:58;92599.13;;;-4.64;93.74
64687;BME280;51113;53.646;-113.674;2024-01-25T02:07:27;92598.16;;;-4.76;93.67
64687;BME280;51113;53.646;-113.674;2024-01-25T02:09:55;92595.81;;;-4.78;94.39
64687;BME280;51113;53.646;-113.674;2024-01-25T02:12:24;92590.16;;;-4.93;93.63
64687;BME280;51113;53.646;-113.674;2024-01-25T02:14:53;92594.03;;;-4.97;93.92
64687;BME280;51113;53.646;-113.674;2024-01-25T02:17:21;92599.06;;;-5.10;93.62
64687;BME280;51113;53.646;-113.674;2024-01-25T02:19:50;92604.47;;;-5.33;93.82
64687;BME280;51113;53.646;-113.674;2024-01-25T02:22:19;92611.50;;;-5.29;94.12
64687;BME280;51113;53.646;-113.674;2024-01-25T02:24:48;92595.38;;;-5.14;94.52
64687;BME280;51113;53.646;-113.674;2024-01-25T02:27:17;92601.25;;;-5.01;94.25
64687;BME280;51113;53.646;-113.674;2024-01-25T02:29:46;92605.50;;;-5.01;93.36
64687;BME280;51113;53.646;-113.674;2024-01-25T02:32:15;92600.25;;;-5.00;93.81
64687;BME280;51113;53.646;-113.674;2024-01-25T02:34:43;92606.84;;;-5.18;92.79
64687;BME280;51113;53.646;-113.674;2024-01-25T02:37:12;92607.56;;;-5.38;92.73
64687;BME280;51113;53.646;-113.674;2024-01-25T02:39:42;92606.38;;;-5.48;93.90
64687;BME280;51113;53.646;-113.674;2024-01-25T02:42:11;92613.28;;;-5.70;93.16
64687;BME280;51113;53.646;-113.674;2024-01-25T02:44:41;92618.06;;;-5.89;93.46
64687;BME280;51113;53.646;-113.674;2024-01-25T02:47:10;92612.03;;;-5.94;94.82
64687;BME280;51113;53.646;-113.674;2024-01-25T02:49:38;92618.66;;;-5.87;95.61
64687;BME280;51113;53.646;-113.674;2024-01-25T02:52:08;92618.41;;;-6.33;93.20
64687;BME280;51113;53.646;-113.674;2024-01-25T02:54:36;92626.53;;;-6.37;93.95
64687;BME280;51113;53.646;-113.674;2024-01-25T02:57:05;92629.50;;;-6.55;93.75
64687;BME280;51113;53.646;-113.674;2024-01-25T02:59:34;92634.28;;;-6.67;94.03
64687;BME280;51113;53.646;-113.674;2024-01-25T03:02:02;92639.22;;;-6.80;93.76
64687;BME280;51113;53.646;-113.674;2024-01-25T03:04:31;92636.69;;;-6.80;94.33
64687;BME280;51113;53.646;-113.674;2024-01-25T03:07:00;92639.28;;;-6.95;94.32
64687;BME280;51113;53.646;-113.674;2024-01-25T03:09:29;92633.94;;;-6.85;95.42
64687;BME280;51113;53.646;-113.674;2024-01-25T03:11:58;92638.84;;;-6.77;95.70
64687;BME280;51113;53.646;-113.674;2024-01-25T03:14:26;92639.66;;;-6.48;97.47
64687;BME280;51113;53.646;-113.674;2024-01-25T03:16:55;92637.09;;;-6.27;97.01
64687;BME280;51113;53.646;-113.674;2024-01-25T03:19:24;92630.72;;;-6.23;96.29
64687;BME280;51113;53.646;-113.674;2024-01-25T03:21:54;92634.84;;;-6.43;95.02
64687;BME280;51113;53.646;-113.674;2024-01-25T03:24:23;92631.13;;;-6.47;96.13
64687;BME280;51113;53.646;-113.674;2024-01-25T03:26:52;92638.09;;;-6.49;95.30
64687;BME280;51113;53.646;-113.674;2024-01-25T03:29:20;92629.88;;;-6.58;94.80
64687;BME280;51113;53.646;-113.674;2024-01-25T03:31:49;92644.38;;;-6.67;95.49
64687;BME280;51113;53.646;-113.674;2024-01-25T03:34:18;92631.81;;;-6.81;95.46
64687;BME280;51113;53.646;-113.674;2024-01-25T03:36:47;92635.59;;;-6.71;95.69
64687;BME280;51113;53.646;-113.674;2024-01-25T03:39:17;92625.44;;;-6.77;95.58
64687;BME280;51113;53.646;-113.674;2024-01-25T03:41:45;92633.56;;;-6.82;94.41
64687;BME280;51113;53.646;-113.674;2024-01-25T03:44:13;92629.22;;;-6.67;95.93
64687;BME280;51113;53.646;-113.674;2024-01-25T03:46:42;92627.09;;;-6.91;94.56
64687;BME280;51113;53.646;-113.674;2024-01-25T03:49:11;92635.00;;;-6.73;97.52
64687;BME280;51113;53.646;-113.674;2024-01-25T03:51:39;92624.25;;;-7.03;94.58
64687;BME280;51113;53.646;-113.674;2024-01-25T03:54:08;92618.06;;;-7.22;94.37
64687;BME280;51113;53.646;-113.674;2024-01-25T03:56:36;92618.84;;;-7.21;94.77
64687;BME280;51113;53.646;-113.674;2024-01-25T03:59:05;92623.16;;;-7.36;94.56
64687;BME280;51113;53.646;-113.674;2024-01-25T04:01:45;92622.41;;;-7.52;94.87
64687;BME280;51113;53.646;-113.674;2024-01-25T04:04:15;92620.88;;;-7.67;94.73
64687;BME280;51113;53.646;-113.674;2024-01-25T04:06:45;92621.59;;;-7.88;95.19
64687;BME280;51113;53.646;-113.674;2024-01-25T04:09:16;92619.94;;;-7.96;95.43
64687;BME280;51113;53.646;-113.674;2024-01-25T04:11:45;92621.44;;;-8.01;95.54
64687;BME280;51113;53.646;-113.674;2024-01-25T04:14:14;92625.16;;;-8.12;95.37
64687;BME280;51113;53.646;-113.674;2024-01-25T04:16:44;92623.16;;;-8.31;96.85
64687;BME280;51113;53.646;-113.674;2024-01-25T04:19:14;92612.50;;;-8.33;95.76
64687;BME280;51113;53.646;-113.674;2024-01-25T04:21:43;92613.53;;;-8.42;95.51
64687;BME280;51113;53.646;-113.674;2024-01-25T04:24:12;92605.91;;;-8.49;95.98
64687;BME280;51113;53.646;-113.674;2024-01-25T04:26:41;92612.06;;;-8.37;96.61
64687;BME280;51113;53.646;-113.674;2024-01-25T04:29:09;92616.31;;;-8.37;96.74
64687;BME280;51113;53.646;-113.674;2024-01-25T04:31:44;92616.06;;;-8.42;97.00
64687;BME280;51113;53.646;-113.674;2024-01-25T04:34:14;92612.31;;;-8.46;97.23
64687;BME280;51113;53.646;-113.674;2024-01-25T04:36:43;92608.16;;;-8.54;96.65
64687;BME280;51113;53.646;-113.674;2024-01-25T04:39:11;92620.81;;;-8.48;97.00
64687;BME280;51113;53.646;-113.674;2024-01-25T04:41:40;92626.81;;;-8.49;96.79
64687;BME280;51113;53.646;-113.674;2024-01-25T04:44:09;92625.16;;;-8.56;97.04
64687;BME280;51113;53.646;-113.674;2024-01-25T04:46:38;92633.31;;;-8.54;97.53
64687;BME280;51113;53.646;-113.674;2024-01-25T04:49:06;92629.19;;;-8.70;96.68
64687;BME280;51113;53.646;-113.674;2024-01-25T04:51:35;92623.72;;;-8.73;97.18
64687;BME280;51113;53.646;-113.674;2024-01-25T04:54:04;92628.59;;;-8.95;96.40
64687;BME280;51113;53.646;-113.674;2024-01-25T04:56:34;92631.06;;;-9.09;97.13
64687;BME280;51113;53.646;-113.674;2024-01-25T04:59:03;92636.75;;;-8.93;98.81
64687;BME280;51113;53.646;-113.674;2024-01-25T05:01:32;92638.13;;;-8.67;98.53
64687;BME280;51113;53.646;-113.674;2024-01-25T05:04:00;92637.09;;;-8.73;98.22
64687;BME280;51113;53.646;-113.674;2024-01-25T05:06:29;92623.22;;;-8.69;99.39
64687;BME280;51113;53.646;-113.674;2024-01-25T05:08:58;92627.50;;;-8.92;96.49
64687;BME280;51113;53.646;-113.674;2024-01-25T05:11:26;92637.72;;;-8.94;96.65
64687;BME280;51113;53.646;-113.674;2024-01-25T05:13:55;92632.63;;;-9.08;97.30
64687;BME280;51113;53.646;-113.674;2024-01-25T05:16:24;92633.47;;;-9.16;97.63
64687;BME280;51113;53.646;-113.674;2024-01-25T05:18:52;92633.97;;;-8.98;98.25
64687;BME280;51113;53.646;-113.674;2024-01-25T05:21:21;92629.50;;;-8.88;97.72
64687;BME280;51113;53.646;-113.674;2024-01-25T05:23:50;92641.06;;;-8.78;98.20
64687;BME280;51113;53.646;-113.674;2024-01-25T05:26:19;92649.44;;;-8.86;97.34
64687;BME280;51113;53.646;-113.674;2024-01-25T05:28:48;92642.97;;;-9.03;96.28
64687;BME280;51113;53.646;-113.674;2024-01-25T05:31:17;92641.06;;;-9.01;96.99
64687;BME280;51113;53.646;-113.674;2024-01-25T05:33:46;92643.38;;;-9.15;96.89
64687;BME280;51113;53.646;-113.674;2024-01-25T05:36:15;92640.34;;;-9.33;96.54
64687;BME280;51113;53.646;-113.674;2024-01-25T05:38:43;92642.84;;;-9.64;96.32
64687;BME280;51113;53.646;-113.674;2024-01-25T05:41:12;92626.00;;;-9.55;97.82
64687;BME280;51113;53.646;-113.674;2024-01-25T05:43:41;92624.53;;;-9.41;98.30
64687;BME280;51113;53.646;-113.674;2024-01-25T05:46:09;92639.97;;;-9.53;96.91
64687;BME280;51113;53.646;-113.674;2024-01-25T05:48:38;92650.19;;;-9.54;97.35
64687;BME280;51113;53.646;-113.674;2024-01-25T05:51:08;92652.59;;;-9.38;98.25
64687;BME280;51113;53.646;-113.674;2024-01-25T05:53:36;92650.47;;;-9.49;98.15
64687;BME280;51113;53.646;-113.674;2024-01-25T05:56:04;92656.22;;;-9.71;97.46
64687;BME280;51113;53.646;-113.674;2024-01-25T05:58:33;92629.59;;;-9.81;97.70
64687;BME280;51113;53.646;-113.674;2024-01-25T06:01:02;92644.28;;;-9.69;98.20
64687;BME280;51113;53.646;-113.674;2024-01-25T06:03:31;92651.16;;;-9.63;98.44
64687;BME280;51113;53.646;-113.674;2024-01-25T06:05:59;92646.00;;;-9.62;98.42
64687;BME280;51113;53.646;-113.674;2024-01-25T06:08:28;92658.78;;;-9.80;97.14
64687;BME280;51113;53.646;-113.674;2024-01-25T06:10:57;92655.03;;;-9.84;97.68
64687;BME280;51113;53.646;-113.674;2024-01-25T06:13:26;92658.69;;;-10.02;96.58
64687;BME280;51113;53.646;-113.674;2024-01-25T06:15:54;92664.16;;;-9.91;97.79
64687;BME280;51113;53.646;-113.674;2024-01-25T06:18:23;92666.88;;;-10.08;97.53
64687;BME280;51113;53.646;-113.674;2024-01-25T06:20:52;92667.69;;;-10.16;96.77
64687;BME280;51113;53.646;-113.674;2024-01-25T06:23:21;92668.91;;;-10.12;97.70
64687;BME280;51113;53.646;-113.674;2024-01-25T06:25:49;92678.50;;;-10.16;96.60
64687;BME280;51113;53.646;-113.674;2024-01-25T06:28:18;92679.59;;;-10.18;97.88
64687;BME280;51113;53.646;-113.674;2024-01-25T06:30:47;92691.72;;;-10.30;100.00
64687;BME280;51113;53.646;-113.674;2024-01-25T06:33:16;92687.38;;;-10.52;100.00
64687;BME280;51113;53.646;-113.674;2024-01-25T06:35:45;92679.69;;;-10.99;99.05
64687;BME280;51113;53.646;-113.674;2024-01-25T06:38:15;92665.88;;;-11.36;96.33
64687;BME280;51113;53.646;-113.674;2024-01-25T06:40:44;92685.28;;;-11.38;95.34
64687;BME280;51113;53.646;-113.674;2024-01-25T06:43:12;92687.44;;;-11.43;95.36
64687;BME280;51113;53.646;-113.674;2024-01-25T06:45:41;92694.00;;;-11.50;94.81
64687;BME280;51113;53.646;-113.674;2024-01-25T06:48:10;92677.09;;;-11.56;94.91
64687;BME280;51113;53.646;-113.674;2024-01-25T06:50:39;92687.72;;;-11.54;94.56
64687;BME280;51113;53.646;-113.674;2024-01-25T06:53:07;92698.69;;;-11.55;95.40
64687;BME280;51113;53.646;-113.674;2024-01-25T06:55:36;92694.16;;;-11.52;95.20
64687;BME280;51113;53.646;-113.674;2024-01-25T06:58:04;92704.44;;;-11.63;94.50
64687;BME280;51113;53.646;-113.674;2024-01-25T07:00:34;92693.47;;;-11.70;95.34
64687;BME280;51113;53.646;-113.674;2024-01-25T07:03:04;92690.69;;;-11.59;95.59
64687;BME280;51113;53.646;-113.674;2024-01-25T07:05:33;92693.03;;;-11.57;95.54
64687;BME280;51113;53.646;-113.674;2024-01-25T07:08:03;92686.31;;;-11.57;95.24
64687;BME280;51113;53.646;-113.674;2024-01-25T07:10:32;92700.97;;;-11.70;94.49
64687;BME280;51113;53.646;-113.674;2024-01-25T07:13:01;92701.75;;;-11.78;95.16
64687;BME280;51113;53.646;-113.674;2024-01-25T07:15:29;92697.06;;;-11.72;95.64
64687;BME280;51113;53.646;-113.674;2024-01-25T07:17:58;92698.94;;;-11.75;95.62
64687;BME280;51113;53.646;-113.674;2024-01-25T07:20:27;92688.66;;;-11.55;96.52
64687;BME280;51113;53.646;-113.674;2024-01-25T07:22:56;92690.59;;;-11.41;96.29
64687;BME280;51113;53.646;-113.674;2024-01-25T07:25:24;92663.19;;;-11.51;96.82
64687;BME280;51113;53.646;-113.674;2024-01-25T07:27:53;92691.56;;;-11.18;97.03
64687;BME280;51113;53.646;-113.674;2024-01-25T07:30:22;92694.56;;;-11.06;97.71
64687;BME280;51113;53.646;-113.674;2024-01-25T07:32:51;92696.63;;;-10.85;98.38
64687;BME280;51113;53.646;-113.674;2024-01-25T07:35:20;92691.59;;;-10.77;97.99
64687;BME280;51113;53.646;-113.674;2024-01-25T07:37:51;92699.13;;;-10.69;98.33
64687;BME280;51113;53.646;-113.674;2024-01-25T07:40:20;92697.56;;;-10.62;99.13
64687;BME280;51113;53.646;-113.674;2024-01-25T07:42:49;92705.22;;;-10.47;98.58
64687;BME280;51113;53.646;-113.674;2024-01-25T07:45:18;92714.63;;;-10.41;99.11
64687;BME280;51113;53.646;-113.674;2024-01-25T07:47:47;92711.66;;;-10.36;99.67
64687;BME280;51113;53.646;-113.674;2024-01-25T07:50:21;92712.91;;;-10.49;99.72
64687;BME280;51113;53.646;-113.674;2024-01-25T07:52:50;92682.81;;;-10.65;99.13
64687;BME280;51113;53.646;-113.674;2024-01-25T07:55:19;92723.41;;;-10.45;99.13
64687;BME280;51113;53.646;-113.674;2024-01-25T07:57:48;92721.53;;;-10.43;99.55
64687;BME280;51113;53.646;-113.674;2024-01-25T08:00:17;92720.91;;;-10.37;100.00
64687;BME280;51113;53.646;-113.674;2024-01-25T08:02:46;92719.19;;;-10.61;99.28
64687;BME280;51113;53.646;-113.674;2024-01-25T08:05:14;92712.59;;;-10.62;99.00
64687;BME280;51113;53.646;-113.674;2024-01-25T08:07:45;92718.25;;;-10.68;98.16
64687;BME280;51113;53.646;-113.674;2024-01-25T08:10:15;92716.03;;;-10.71;97.53
64687;BME280;51113;53.646;-113.674;2024-01-25T08:12:44;92718.69;;;-10.81;97.47
64687;BME280;51113;53.646;-113.674;2024-01-25T08:15:25;92722.31;;;-10.83;97.74
64687;BME280;51113;53.646;-113.674;2024-01-25T08:17:53;92721.22;;;-10.72;98.36
64687;BME280;51113;53.646;-113.674;2024-01-25T08:20:22;92716.34;;;-10.74;97.43
64687;BME280;51113;53.646;-113.674;2024-01-25T08:22:50;92712.28;;;-10.75;97.71
64687;BME280;51113;53.646;-113.674;2024-01-25T08:25:21;92718.41;;;-10.69;97.93
64687;BME280;51113;53.646;-113.674;2024-01-25T08:27:49;92718.72;;;-10.64;97.40
64687;BME280;51113;53.646;-113.674;2024-01-25T08:30:17;92723.25;;;-10.52;98.12
64687;BME280;51113;53.646;-113.674;2024-01-25T08:32:46;92729.53;;;-10.48;98.23
64687;BME280;51113;53.646;-113.674;2024-01-25T08:35:14;92727.00;;;-10.39;98.89
64687;BME280;51113;53.646;-113.674;2024-01-25T08:37:43;92727.00;;;-10.23;98.94
64687;BME280;51113;53.646;-113.674;2024-01-25T08:40:12;92734.47;;;-10.15;99.03
64687;BME280;51113;53.646;-113.674;2024-01-25T08:42:41;92727.25;;;-10.10;100.00
64687;BME280;51113;53.646;-113.674;2024-01-25T08:45:10;92720.34;;;-10.08;100.00
64687;BME280;51113;53.646;-113.674;2024-01-25T08:47:45;92720.69;;;-10.11;100.00
64687;BME280;51113;53.646;-113.674;2024-01-25T08:50:15;92728.34;;;-10.13;100.00
64687;BME280;51113;53.646;-113.674;2024-01-25T08:52:44;92727.09;;;-10.00;100.00
64687;BME280;51113;53.646;-113.674;2024-01-25T08:55:12;92741.34;;;-9.93;100.00
64687;BME280;51113;53.646;-113.674;2024-01-25T08:57:42;92734.88;;;-9.79;100.00
64687;BME280;51113;53.646;-113.674;2024-01-25T09:00:11;92736.91;;;-9.74;100.00
64687;BME280;51113;53.646;-113.674;2024-01-25T09:02:39;92737.19;;;-9.69;100.00
64687;BME280;51113;53.646;-113.674;2024-01-25T09:05:08;92736.72;;;-9.65;100.00
64687;BME280;51113;53.646;-113.674;2024-01-25T09:07:38;92747.38;;;-9.63;100.00
64687;BME280;51113;53.646;-113.674;2024-01-25T09:10:07;92733.41;;;-9.57;100.00
64687;BME280;51113;53.646;-113.674;2024-01-25T09:12:37;92746.31;;;-9.76;100.00
64687;BME280;51113;53.646;-113.674;2024-01-25T09:15:07;92753.13;;;-10.01;100.00
64687;BME280;51113;53.646;-113.674;2024-01-25T09:17:36;92754.91;;;-10.26;100.00
64687;BME280;51113;53.646;-113.674;2024-01-25T09:20:07;92756.63;;;-10.43;100.00
64687;BME280;51113;53.646;-113.674;2024-01-25T09:22:36;92759.94;;;-10.51;100.00
64687;BME280;51113;53.646;-113.674;2024-01-25T09:25:05;92757.41;;;-10.51;100.00
64687;BME280;51113;53.646;-113.674;2024-01-25T09:27:36;92763.53;;;-10.61;100.00
64687;BME280;51113;53.646;-113.674;2024-01-25T09:30:07;92764.63;;;-10.64;100.00
64687;BME280;51113;53.646;-113.674;2024-01-25T09:32:36;92769.63;;;-10.64;100.00
64687;BME280;51113;53.646;-113.674;2024-01-25T09:35:05;92767.13;;;-10.56;100.00
64687;BME280;51113;53.646;-113.674;2024-01-25T09:37:35;92772.94;;;-10.39;100.00
64687;BME280;51113;53.646;-113.674;2024-01-25T09:40:04;92784.06;;;-10.25;100.00
64687;BME280;51113;53.646;-113.674;2024-01-25T09:42:34;92773.41;;;-10.27;100.00
64687;BME280;51113;53.646;-113.674;2024-01-25T09:45:06;92774.66;;;-10.23;100.00
64687;BME280;51113;53.646;-113.674;2024-01-25T09:47:35;92772.63;;;-10.20;100.00
64687;BME280;51113;53.646;-113.674;2024-01-25T09:50:05;92784.19;;;-10.11;100.00
64687;BME280;51113;53.646;-113.674;2024-01-25T09:52:34;92790.63;;;-10.08;100.00
64687;BME280;51113;53.646;-113.674;2024-01-25T09:55:07;92794.69;;;-10.15;99.61
64687;BME280;51113;53.646;-113.674;2024-01-25T09:57:36;92784.97;;;-10.18;99.88
64687;BME280;51113;53.646;-113.674;2024-01-25T10:00:06;92798.94;;;-10.16;99.45
64687;BME280;51113;53.646;-113.674;2024-01-25T10:02:39;92802.06;;;-10.14;99.56
64687;BME280;51113;53.646;-113.674;2024-01-25T10:05:08;92802.84;;;-10.13;98.77
64687;BME280;51113;53.646;-113.674;2024-01-25T10:07:41;92810.22;;;-10.12;99.14
64687;BME280;51113;53.646;-113.674;2024-01-25T10:10:11;92809.13;;;-10.17;98.73
64687;BME280;51113;53.646;-113.674;2024-01-25T10:12:41;92806.63;;;-10.17;98.38
64687;BME280;51113;53.646;-113.674;2024-01-25T10:15:11;92819.34;;;-10.27;97.50
64687;BME280;51113;53.646;-113.674;2024-01-25T10:17:40;92817.94;;;-10.37;96.59
64687;BME280;51113;53.646;-113.674;2024-01-25T10:20:14;92811.03;;;-10.43;97.28
64687;BME280;51113;53.646;-113.674;2024-01-25T10:22:44;92813.84;;;-10.47;96.93
64687;BME280;51113;53.646;-113.674;2024-01-25T10:25:17;92812.91;;;-10.54;96.17
64687;BME280;51113;53.646;-113.674;2024-01-25T10:27:47;92804.72;;;-10.72;96.56
64687;BME280;51113;53.646;-113.674;2024-01-25T10:30:17;92801.56;;;-10.82;96.92
64687;BME280;51113;53.646;-113.674;2024-01-25T10:32:48;92800.97;;;-10.76;97.41
64687;BME280;51113;53.646;-113.674;2024-01-25T10:35:18;92794.38;;;-10.77;97.19
64687;BME280;51113;53.646;-113.674;2024-01-25T10:37:52;92798.13;;;-10.73;97.73
64687;BME280;51113;53.646;-113.674;2024-01-25T10:40:21;92776.50;;;-10.82;97.49
64687;BME280;51113;53.646;-113.674;2024-01-25T10:42:50;92782.47;;;-10.75;97.57
64687;BME280;51113;53.646;-113.674;2024-01-25T10:45:19;92790.94;;;-10.76;97.52
64687;BME280;51113;53.646;-113.674;2024-01-25T10:47:49;92784.38;;;-10.69;98.08
64687;BME280;51113;53.646;-113.674;2024-01-25T10:50:18;92790.47;;;-10.63;98.50
64687;BME280;51113;53.646;-113.674;2024-01-25T10:52:47;92788.44;;;-10.52;98.05
64687;BME280;51113;53.646;-113.674;2024-01-25T10:55:17;92784.69;;;-10.48;97.43
64687;BME280;51113;53.646;-113.674;2024-01-25T10:57:46;92785.78;;;-10.50;97.03
64687;BME280;51113;53.646;-113.674;2024-01-25T11:00:16;92790.94;;;-10.76;97.10
64687;BME280;51113;53.646;-113.674;2024-01-25T11:02:45;92786.69;;;-10.84;97.35
64687;BME280;51113;53.646;-113.674;2024-01-25T11:05:18;92785.88;;;-10.92;97.22
64687;BME280;51113;53.646;-113.674;2024-01-25T11:07:50;92781.00;;;-11.02;97.32
64687;BME280;51113;53.646;-113.674;2024-01-25T11:10:23;92787.25;;;-11.06;97.81
64687;BME280;51113;53.646;-113.674;2024-01-25T11:13:01;92791.78;;;-11.18;97.64
64687;BME280;51113;53.646;-113.674;2024-01-25T11:15:36;92786.44;;;-11.15;98.41
64687;BME280;51113;53.646;-113.674;2024-01-25T11:18:08;92791.28;;;-11.21;99.03
64687;BME280;51113;53.646;-113.674;2024-01-25T11:20:37;92762.72;;;-11.45;98.64
64687;BME280;51113;53.646;-113.674;2024-01-25T11:23:06;92796.44;;;-11.23;99.02
64687;BME280;51113;53.646;-113.674;2024-01-25T11:25:38;92797.25;;;-11.14;98.54
64687;BME280;51113;53.646;-113.674;2024-01-25T11:28:06;92804.13;;;-11.16;98.03
64687;BME280;51113;53.646;-113.674;2024-01-25T11:30:36;92806.50;;;-11.15;97.69
64687;BME280;51113;53.646;-113.674;2024-01-25T11:33:07;92808.03;;;-11.22;97.11
64687;BME280;51113;53.646;-113.674;2024-01-25T11:35:36;92787.88;;;-11.54;96.91
64687;BME280;51113;53.646;-113.674;2024-01-25T11:38:05;92801.84;;;-11.44;97.30
64687;BME280;51113;53.646;-113.674;2024-01-25T11:40:34;92799.31;;;-11.52;96.75
64687;BME280;51113;53.646;-113.674;2024-01-25T11:43:05;92797.59;;;-11.51;97.95
64687;BME280;51113;53.646;-113.674;2024-01-25T11:45:39;92797.59;;;-11.51;98.21
64687;BME280;51113;53.646;-113.674;2024-01-25T11:48:11;92794.28;;;-11.52;97.90
64687;BME280;51113;53.646;-113.674;2024-01-25T11:50:40;92797.09;;;-11.55;98.52
64687;BME280;51113;53.646;-113.674;2024-01-25T11:53:08;92799.81;;;-11.40;98.89
64687;BME280;51113;53.646;-113.674;2024-01-25T11:55:38;92803.38;;;-11.51;97.89
64687;BME280;51113;53.646;-113.674;2024-01-25T11:58:07;92811.94;;;-11.61;97.62
64687;BME280;51113;53.646;-113.674;2024-01-25T12:00:36;92806.72;;;-11.68;97.40
64687;BME280;51113;53.646;-113.674;2024-01-25T12:03:05;92825.47;;;-11.80;97.23
64687;BME280;51113;53.646;-113.674;2024-01-25T12:05:34;92813.44;;;-12.02;96.25
64687;BME280;51113;53.646;-113.674;2024-01-25T12:08:09;92809.16;;;-12.10;96.91
64687;BME280;51113;53.646;-113.674;2024-01-25T12:10:38;92813.03;;;-12.16;96.72
64687;BME280;51113;53.646;-113.674;2024-01-25T12:13:09;92816.84;;;-12.29;96.23
64687;BME280;51113;53.646;-113.674;2024-01-25T12:15:38;92816.50;;;-12.34;96.25
64687;BME280;51113;53.646;-113.674;2024-01-25T12:18:07;92818.91;;;-12.25;96.38
64687;BME280;51113;53.646;-113.674;2024-01-25T12:20:36;92826.50;;;-12.34;95.75
64687;BME280;51113;53.646;-113.674;2024-01-25T12:23:08;92823.06;;;-12.33;97.12
64687;BME280;51113;53.646;-113.674;2024-01-25T12:25:39;92821.28;;;-12.41;98.18
64687;BME280;51113;53.646;-113.674;2024-01-25T12:28:10;92819.13;;;-12.36;98.38
64687;BME280;51113;53.646;-113.674;2024-01-25T12:30:38;92819.84;;;-12.44;97.26
64687;BME280;51113;53.646;-113.674;2024-01-25T12:33:07;92825.50;;;-12.42;97.58
64687;BME280;51113;53.646;-113.674;2024-01-25T12:35:36;92827.72;;;-12.56;96.93